sensor_id;sensor_type;location;lat;lon;timestamp;P1;durP1;ratioP1;P2;durP2;ratioP2
78875;SDS011;68253;52.506;5.486;2023-04-09T00:01:04;18.08;;;8.13;;
78875;SDS011;68253;52.506;5.486;2023-04-09T00:03:34;18.20;;;8.35;;
78875;SDS011;68253;52.506;5.486;2023-04-09T00:06:01;26.98;;;13.73;;
78875;SDS011;68253;52.506;5.486;2023-04-09T00:08:27;23.55;;;12.23;;
78875;SDS011;68253;52.506;5.486;2023-04-09T00:10:53;22.20;;;11.13;;
78875;SDS011;68253;52.506;5.486;2023-04-09T00:13:21;23.15;;;11.57;;
78875;SDS011;68253;52.506;5.486;2023-04-09T00:15:47;25.92;;;13.80;;
78875;SDS011;68253;52.506;5.486;2023-04-09T00:18:14;25.70;;;12.27;;
78875;SDS011;68253;52.506;5.486;2023-04-09T00:20:42;20.63;;;9.43;;
78875;SDS011;68253;52.506;5.486;2023-04-09T00:23:08;23.95;;;11.25;;
78875;SDS011;68253;52.506;5.486;2023-04-09T00:25:34;27.13;;;13.60;;
78875;SDS011;68253;52.506;5.486;2023-04-09T00:28:01;29.40;;;14.50;;
78875;SDS011;68253;52.506;5.486;2023-04-09T00:30:28;22.42;;;10.82;;
78875;SDS011;68253;52.506;5.486;2023-04-09T00:32:55;18.83;;;9.20;;
78875;SDS011;68253;52.506;5.486;2023-04-09T00:35:21;23.55;;;11.40;;
78875;SDS011;68253;52.506;5.486;2023-04-09T00:37:47;20.63;;;9.85;;
78875;SDS011;68253;52.506;5.486;2023-04-09T00:40:13;18.58;;;8.98;;
78875;SDS011;68253;52.506;5.486;2023-04-09T00:42:39;21.40;;;10.23;;
78875;SDS011;68253;52.506;5.486;2023-04-09T00:45:06;18.85;;;9.25;;
78875;SDS011;68253;52.506;5.486;2023-04-09T00:47:33;19.33;;;9.13;;
78875;SDS011;68253;52.506;5.486;2023-04-09T00:50:00;17.85;;;7.72;;
78875;SDS011;68253;52.506;5.486;2023-04-09T00:52:27;23.85;;;12.50;;
78875;SDS011;68253;52.506;5.486;2023-04-09T00:54:57;21.08;;;10.68;;
78875;SDS011;68253;52.506;5.486;2023-04-09T00:57:25;19.65;;;8.73;;
78875;SDS011;68253;52.506;5.486;2023-04-09T00:59:53;23.05;;;11.32;;
78875;SDS011;68253;52.506;5.486;2023-04-09T01:02:19;22.23;;;11.32;;
78875;SDS011;68253;52.506;5.486;2023-04-09T01:04:46;23.58;;;11.27;;
78875;SDS011;68253;52.506;5.486;2023-04-09T01:07:16;24.27;;;12.00;;
78875;SDS011;68253;52.506;5.486;2023-04-09T01:09:52;18.48;;;8.88;;
78875;SDS011;68253;52.506;5.486;2023-04-09T01:12:31;22.55;;;11.15;;
78875;SDS011;68253;52.506;5.486;2023-04-09T01:15:20;20.42;;;9.80;;
78875;SDS011;68253;52.506;5.486;2023-04-09T01:17:52;22.13;;;10.85;;
78875;SDS011;68253;52.506;5.486;2023-04-09T01:23:18;23.77;;;9.98;;
78875;SDS011;68253;52.506;5.486;2023-04-09T01:26:52;25.40;;;10.70;;
78875;SDS011;68253;52.506;5.486;2023-04-09T01:28:54;32.13;;;15.05;;
78875;SDS011;68253;52.506;5.486;2023-04-09T01:31:31;25.95;;;12.02;;
78875;SDS011;68253;52.506;5.486;2023-04-09T01:34:00;25.52;;;11.88;;
78875;SDS011;68253;52.506;5.486;2023-04-09T01:36:28;21.98;;;9.23;;
78875;SDS011;68253;52.506;5.486;2023-04-09T01:38:59;24.85;;;9.90;;
78875;SDS011;68253;52.506;5.486;2023-04-09T01:41:26;28.70;;;13.55;;
78875;SDS011;68253;52.506;5.486;2023-04-09T01:43:53;25.33;;;10.18;;
78875;SDS011;68253;52.506;5.486;2023-04-09T01:46:20;29.90;;;14.77;;
78875;SDS011;68253;52.506;5.486;2023-04-09T01:48:47;27.45;;;11.88;;
78875;SDS011;68253;52.506;5.486;2023-04-09T01:51:14;29.17;;;13.48;;
78875;SDS011;68253;52.506;5.486;2023-04-09T01:53:42;22.98;;;9.13;;
78875;SDS011;68253;52.506;5.486;2023-04-09T01:56:08;30.88;;;13.82;;
78875;SDS011;68253;52.506;5.486;2023-04-09T01:58:34;32.03;;;14.05;;
78875;SDS011;68253;52.506;5.486;2023-04-09T02:01:04;22.65;;;10.57;;
78875;SDS011;68253;52.506;5.486;2023-04-09T02:03:37;28.33;;;12.77;;
78875;SDS011;68253;52.506;5.486;2023-04-09T02:08:42;28.92;;;12.93;;
78875;SDS011;68253;52.506;5.486;2023-04-09T02:11:10;30.63;;;13.95;;
78875;SDS011;68253;52.506;5.486;2023-04-09T02:13:39;29.80;;;13.88;;
78875;SDS011;68253;52.506;5.486;2023-04-09T02:16:08;26.92;;;12.40;;
78875;SDS011;68253;52.506;5.486;2023-04-09T02:18:36;29.25;;;13.18;;
78875;SDS011;68253;52.506;5.486;2023-04-09T02:21:02;28.90;;;12.55;;
78875;SDS011;68253;52.506;5.486;2023-04-09T02:23:30;30.35;;;13.13;;
78875;SDS011;68253;52.506;5.486;2023-04-09T02:25:59;24.48;;;11.38;;
78875;SDS011;68253;52.506;5.486;2023-04-09T02:28:26;34.40;;;16.08;;
78875;SDS011;68253;52.506;5.486;2023-04-09T02:30:52;33.05;;;15.55;;
78875;SDS011;68253;52.506;5.486;2023-04-09T02:33:18;33.58;;;15.02;;
78875;SDS011;68253;52.506;5.486;2023-04-09T02:35:44;34.15;;;15.73;;
78875;SDS011;68253;52.506;5.486;2023-04-09T02:38:11;26.90;;;12.20;;
78875;SDS011;68253;52.506;5.486;2023-04-09T02:40:39;26.15;;;10.90;;
78875;SDS011;68253;52.506;5.486;2023-04-09T02:43:06;22.08;;;7.97;;
78875;SDS011;68253;52.506;5.486;2023-04-09T02:45:33;27.02;;;10.65;;
78875;SDS011;68253;52.506;5.486;2023-04-09T02:47:59;24.38;;;10.07;;
78875;SDS011;68253;52.506;5.486;2023-04-09T02:50:26;26.63;;;11.32;;
78875;SDS011;68253;52.506;5.486;2023-04-09T02:52:52;37.00;;;16.02;;
78875;SDS011;68253;52.506;5.486;2023-04-09T02:55:18;33.55;;;13.57;;
78875;SDS011;68253;52.506;5.486;2023-04-09T02:57:45;27.10;;;12.07;;
78875;SDS011;68253;52.506;5.486;2023-04-09T03:00:11;33.05;;;14.80;;
78875;SDS011;68253;52.506;5.486;2023-04-09T03:02:38;33.33;;;13.68;;
78875;SDS011;68253;52.506;5.486;2023-04-09T03:05:04;33.50;;;14.98;;
78875;SDS011;68253;52.506;5.486;2023-04-09T03:07:31;33.17;;;14.48;;
78875;SDS011;68253;52.506;5.486;2023-04-09T03:09:57;27.50;;;10.90;;
78875;SDS011;68253;52.506;5.486;2023-04-09T03:12:23;25.02;;;11.88;;
78875;SDS011;68253;52.506;5.486;2023-04-09T03:14:49;31.10;;;14.13;;
78875;SDS011;68253;52.506;5.486;2023-04-09T03:17:16;29.83;;;14.10;;
78875;SDS011;68253;52.506;5.486;2023-04-09T03:19:42;25.45;;;11.32;;
78875;SDS011;68253;52.506;5.486;2023-04-09T03:22:08;25.38;;;10.65;;
78875;SDS011;68253;52.506;5.486;2023-04-09T03:24:34;28.15;;;12.60;;
78875;SDS011;68253;52.506;5.486;2023-04-09T03:27:03;32.45;;;14.43;;
78875;SDS011;68253;52.506;5.486;2023-04-09T03:29:31;27.88;;;12.85;;
78875;SDS011;68253;52.506;5.486;2023-04-09T03:31:58;23.55;;;10.30;;
78875;SDS011;68253;52.506;5.486;2023-04-09T03:34:24;37.10;;;16.60;;
78875;SDS011;68253;52.506;5.486;2023-04-09T03:36:53;26.08;;;12.25;;
78875;SDS011;68253;52.506;5.486;2023-04-09T03:39:29;24.70;;;10.77;;
78875;SDS011;68253;52.506;5.486;2023-04-09T03:41:56;42.53;;;18.63;;
78875;SDS011;68253;52.506;5.486;2023-04-09T03:44:24;30.88;;;13.77;;
78875;SDS011;68253;52.506;5.486;2023-04-09T03:47:09;32.13;;;14.77;;
78875;SDS011;68253;52.506;5.486;2023-04-09T03:49:37;29.30;;;13.65;;
78875;SDS011;68253;52.506;5.486;2023-04-09T03:52:13;22.60;;;9.50;;
78875;SDS011;68253;52.506;5.486;2023-04-09T03:54:43;29.50;;;12.75;;
78875;SDS011;68253;52.506;5.486;2023-04-09T03:57:14;33.58;;;14.63;;
78875;SDS011;68253;52.506;5.486;2023-04-09T03:59:43;31.88;;;14.63;;
78875;SDS011;68253;52.506;5.486;2023-04-09T04:02:10;23.63;;;10.27;;
78875;SDS011;68253;52.506;5.486;2023-04-09T04:04:41;21.75;;;8.05;;
78875;SDS011;68253;52.506;5.486;2023-04-09T04:07:09;34.63;;;14.18;;
78875;SDS011;68253;52.506;5.486;2023-04-09T04:09:41;25.92;;;11.35;;
78875;SDS011;68253;52.506;5.486;2023-04-09T04:12:11;30.60;;;14.73;;
78875;SDS011;68253;52.506;5.486;2023-04-09T04:15:06;25.02;;;11.27;;
78875;SDS011;68253;52.506;5.486;2023-04-09T04:17:38;31.45;;;13.90;;
78875;SDS011;68253;52.506;5.486;2023-04-09T04:20:12;24.08;;;9.80;;
78875;SDS011;68253;52.506;5.486;2023-04-09T04:22:50;29.98;;;14.27;;
78875;SDS011;68253;52.506;5.486;2023-04-09T04:25:17;23.30;;;10.20;;
78875;SDS011;68253;52.506;5.486;2023-04-09T04:27:45;19.63;;;8.75;;
78875;SDS011;68253;52.506;5.486;2023-04-09T04:30:12;33.08;;;14.40;;
78875;SDS011;68253;52.506;5.486;2023-04-09T04:32:54;20.80;;;9.40;;
78875;SDS011;68253;52.506;5.486;2023-04-09T04:35:21;26.52;;;12.82;;
78875;SDS011;68253;52.506;5.486;2023-04-09T04:40:17;22.20;;;10.85;;
78875;SDS011;68253;52.506;5.486;2023-04-09T04:42:43;25.35;;;11.23;;
78875;SDS011;68253;52.506;5.486;2023-04-09T04:45:13;22.83;;;9.80;;
78875;SDS011;68253;52.506;5.486;2023-04-09T04:47:47;23.10;;;10.68;;
78875;SDS011;68253;52.506;5.486;2023-04-09T04:50:13;23.85;;;11.00;;
78875;SDS011;68253;52.506;5.486;2023-04-09T04:52:57;27.95;;;13.38;;
78875;SDS011;68253;52.506;5.486;2023-04-09T04:55:27;34.20;;;16.20;;
78875;SDS011;68253;52.506;5.486;2023-04-09T04:57:53;21.73;;;9.25;;
78875;SDS011;68253;52.506;5.486;2023-04-09T05:00:23;34.13;;;16.27;;
78875;SDS011;68253;52.506;5.486;2023-04-09T05:02:49;24.88;;;12.02;;
78875;SDS011;68253;52.506;5.486;2023-04-09T05:05:38;20.42;;;9.70;;
78875;SDS011;68253;52.506;5.486;2023-04-09T05:08:04;22.92;;;10.45;;
78875;SDS011;68253;52.506;5.486;2023-04-09T05:10:31;29.02;;;14.40;;
78875;SDS011;68253;52.506;5.486;2023-04-09T05:12:58;20.80;;;9.65;;
78875;SDS011;68253;52.506;5.486;2023-04-09T05:15:30;21.77;;;9.07;;
78875;SDS011;68253;52.506;5.486;2023-04-09T05:17:57;20.88;;;8.35;;
78875;SDS011;68253;52.506;5.486;2023-04-09T05:20:24;23.38;;;10.18;;
78875;SDS011;68253;52.506;5.486;2023-04-09T05:23:01;27.77;;;12.25;;
78875;SDS011;68253;52.506;5.486;2023-04-09T05:25:32;22.98;;;8.88;;
78875;SDS011;68253;52.506;5.486;2023-04-09T05:27:59;24.92;;;12.13;;
78875;SDS011;68253;52.506;5.486;2023-04-09T05:30:26;27.73;;;12.95;;
78875;SDS011;68253;52.506;5.486;2023-04-09T05:32:53;28.15;;;11.98;;
78875;SDS011;68253;52.506;5.486;2023-04-09T05:35:23;22.73;;;9.85;;
78875;SDS011;68253;52.506;5.486;2023-04-09T05:37:49;19.77;;;9.05;;
78875;SDS011;68253;52.506;5.486;2023-04-09T05:40:15;20.38;;;9.38;;
78875;SDS011;68253;52.506;5.486;2023-04-09T05:42:41;21.52;;;9.75;;
78875;SDS011;68253;52.506;5.486;2023-04-09T05:45:13;20.33;;;8.80;;
78875;SDS011;68253;52.506;5.486;2023-04-09T05:47:46;20.02;;;8.73;;
78875;SDS011;68253;52.506;5.486;2023-04-09T05:50:17;22.50;;;9.57;;
78875;SDS011;68253;52.506;5.486;2023-04-09T05:52:43;23.83;;;10.52;;
78875;SDS011;68253;52.506;5.486;2023-04-09T05:55:12;23.33;;;11.07;;
78875;SDS011;68253;52.506;5.486;2023-04-09T05:57:43;29.05;;;14.07;;
78875;SDS011;68253;52.506;5.486;2023-04-09T06:00:10;26.92;;;13.02;;
78875;SDS011;68253;52.506;5.486;2023-04-09T06:02:45;25.27;;;11.30;;
78875;SDS011;68253;52.506;5.486;2023-04-09T06:05:11;19.42;;;8.02;;
78875;SDS011;68253;52.506;5.486;2023-04-09T06:07:37;25.20;;;11.82;;
78875;SDS011;68253;52.506;5.486;2023-04-09T06:10:03;19.90;;;8.60;;
78875;SDS011;68253;52.506;5.486;2023-04-09T06:12:30;24.17;;;11.27;;
78875;SDS011;68253;52.506;5.486;2023-04-09T06:14:58;24.08;;;10.43;;
78875;SDS011;68253;52.506;5.486;2023-04-09T06:17:26;22.92;;;10.73;;
78875;SDS011;68253;52.506;5.486;2023-04-09T06:19:53;20.52;;;9.15;;
78875;SDS011;68253;52.506;5.486;2023-04-09T06:22:19;25.48;;;12.13;;
78875;SDS011;68253;52.506;5.486;2023-04-09T06:24:45;22.30;;;10.38;;
78875;SDS011;68253;52.506;5.486;2023-04-09T06:27:12;18.77;;;7.85;;
78875;SDS011;68253;52.506;5.486;2023-04-09T06:29:38;28.15;;;11.90;;
78875;SDS011;68253;52.506;5.486;2023-04-09T06:32:04;18.17;;;8.73;;
78875;SDS011;68253;52.506;5.486;2023-04-09T06:34:30;23.75;;;10.63;;
78875;SDS011;68253;52.506;5.486;2023-04-09T06:36:56;23.83;;;11.05;;
78875;SDS011;68253;52.506;5.486;2023-04-09T06:39:22;25.00;;;10.98;;
78875;SDS011;68253;52.506;5.486;2023-04-09T06:41:48;22.00;;;10.20;;
78875;SDS011;68253;52.506;5.486;2023-04-09T06:44:35;21.25;;;10.45;;
78875;SDS011;68253;52.506;5.486;2023-04-09T06:47:01;20.83;;;9.75;;
78875;SDS011;68253;52.506;5.486;2023-04-09T06:49:27;21.77;;;9.95;;
78875;SDS011;68253;52.506;5.486;2023-04-09T06:51:53;27.20;;;12.43;;
78875;SDS011;68253;52.506;5.486;2023-04-09T06:54:20;20.63;;;9.05;;
78875;SDS011;68253;52.506;5.486;2023-04-09T06:56:46;17.33;;;7.55;;
78875;SDS011;68253;52.506;5.486;2023-04-09T06:59:12;18.02;;;8.02;;
78875;SDS011;68253;52.506;5.486;2023-04-09T07:01:38;17.48;;;7.57;;
78875;SDS011;68253;52.506;5.486;2023-04-09T07:04:06;15.95;;;7.32;;
78875;SDS011;68253;52.506;5.486;2023-04-09T07:06:32;17.95;;;8.38;;
78875;SDS011;68253;52.506;5.486;2023-04-09T07:08:58;21.38;;;10.07;;
78875;SDS011;68253;52.506;5.486;2023-04-09T07:11:24;18.90;;;7.85;;
78875;SDS011;68253;52.506;5.486;2023-04-09T07:13:51;18.25;;;8.57;;
78875;SDS011;68253;52.506;5.486;2023-04-09T07:16:17;20.77;;;10.23;;
78875;SDS011;68253;52.506;5.486;2023-04-09T07:18:43;23.13;;;10.95;;
78875;SDS011;68253;52.506;5.486;2023-04-09T07:21:09;19.08;;;8.88;;
78875;SDS011;68253;52.506;5.486;2023-04-09T07:23:36;18.77;;;8.52;;
78875;SDS011;68253;52.506;5.486;2023-04-09T07:26:02;16.67;;;7.43;;
78875;SDS011;68253;52.506;5.486;2023-04-09T07:28:29;23.77;;;10.90;;
78875;SDS011;68253;52.506;5.486;2023-04-09T07:30:56;20.10;;;10.02;;
78875;SDS011;68253;52.506;5.486;2023-04-09T07:33:22;19.65;;;8.30;;
78875;SDS011;68253;52.506;5.486;2023-04-09T07:35:48;20.80;;;9.00;;
78875;SDS011;68253;52.506;5.486;2023-04-09T07:38:14;23.08;;;11.43;;
78875;SDS011;68253;52.506;5.486;2023-04-09T07:40:41;23.50;;;10.95;;
78875;SDS011;68253;52.506;5.486;2023-04-09T07:43:07;24.90;;;12.95;;
78875;SDS011;68253;52.506;5.486;2023-04-09T07:45:33;27.70;;;13.30;;
78875;SDS011;68253;52.506;5.486;2023-04-09T07:47:59;28.50;;;14.60;;
78875;SDS011;68253;52.506;5.486;2023-04-09T07:50:25;22.73;;;11.20;;
78875;SDS011;68253;52.506;5.486;2023-04-09T07:52:52;24.75;;;12.10;;
78875;SDS011;68253;52.506;5.486;2023-04-09T07:55:18;18.52;;;8.63;;
78875;SDS011;68253;52.506;5.486;2023-04-09T07:57:44;20.77;;;8.93;;
78875;SDS011;68253;52.506;5.486;2023-04-09T08:00:11;22.15;;;9.95;;
78875;SDS011;68253;52.506;5.486;2023-04-09T08:02:42;19.50;;;9.02;;
78875;SDS011;68253;52.506;5.486;2023-04-09T08:05:08;20.33;;;9.75;;
78875;SDS011;68253;52.506;5.486;2023-04-09T08:07:34;18.83;;;9.20;;
78875;SDS011;68253;52.506;5.486;2023-04-09T08:10:01;17.85;;;7.70;;
78875;SDS011;68253;52.506;5.486;2023-04-09T08:12:27;20.25;;;9.85;;
78875;SDS011;68253;52.506;5.486;2023-04-09T08:14:53;19.48;;;8.90;;
78875;SDS011;68253;52.506;5.486;2023-04-09T08:17:19;22.58;;;10.93;;
78875;SDS011;68253;52.506;5.486;2023-04-09T08:19:46;23.27;;;11.20;;
78875;SDS011;68253;52.506;5.486;2023-04-09T08:22:14;19.15;;;9.43;;
78875;SDS011;68253;52.506;5.486;2023-04-09T08:24:40;20.33;;;9.80;;
78875;SDS011;68253;52.506;5.486;2023-04-09T08:27:08;17.35;;;7.00;;
78875;SDS011;68253;52.506;5.486;2023-04-09T08:29:35;22.98;;;11.00;;
78875;SDS011;68253;52.506;5.486;2023-04-09T08:32:01;19.83;;;9.32;;
78875;SDS011;68253;52.506;5.486;2023-04-09T08:34:27;18.80;;;8.63;;
78875;SDS011;68253;52.506;5.486;2023-04-09T08:36:53;17.90;;;7.75;;
78875;SDS011;68253;52.506;5.486;2023-04-09T08:39:20;17.63;;;7.43;;
78875;SDS011;68253;52.506;5.486;2023-04-09T08:41:46;19.40;;;8.20;;
78875;SDS011;68253;52.506;5.486;2023-04-09T08:44:12;23.23;;;11.05;;
78875;SDS011;68253;52.506;5.486;2023-04-09T08:46:40;22.45;;;11.50;;
78875;SDS011;68253;52.506;5.486;2023-04-09T08:49:07;20.95;;;9.55;;
78875;SDS011;68253;52.506;5.486;2023-04-09T08:51:34;20.60;;;9.77;;
78875;SDS011;68253;52.506;5.486;2023-04-09T08:54:00;17.83;;;8.05;;
78875;SDS011;68253;52.506;5.486;2023-04-09T08:56:27;19.75;;;10.13;;
78875;SDS011;68253;52.506;5.486;2023-04-09T08:58:54;23.33;;;10.85;;
78875;SDS011;68253;52.506;5.486;2023-04-09T09:01:24;23.77;;;11.90;;
78875;SDS011;68253;52.506;5.486;2023-04-09T09:03:53;21.45;;;9.73;;
78875;SDS011;68253;52.506;5.486;2023-04-09T09:06:25;22.40;;;11.13;;
78875;SDS011;68253;52.506;5.486;2023-04-09T09:09:07;22.63;;;11.55;;
78875;SDS011;68253;52.506;5.486;2023-04-09T09:11:44;19.67;;;9.65;;
78875;SDS011;68253;52.506;5.486;2023-04-09T09:14:12;18.00;;;8.90;;
78875;SDS011;68253;52.506;5.486;2023-04-09T09:16:41;18.48;;;8.45;;
78875;SDS011;68253;52.506;5.486;2023-04-09T09:19:29;20.25;;;11.02;;
78875;SDS011;68253;52.506;5.486;2023-04-09T09:24:25;18.50;;;8.52;;
78875;SDS011;68253;52.506;5.486;2023-04-09T09:26:51;22.02;;;10.43;;
78875;SDS011;68253;52.506;5.486;2023-04-09T09:29:19;19.63;;;9.68;;
78875;SDS011;68253;52.506;5.486;2023-04-09T09:31:46;18.67;;;8.70;;
78875;SDS011;68253;52.506;5.486;2023-04-09T09:34:14;18.83;;;8.88;;
78875;SDS011;68253;52.506;5.486;2023-04-09T09:36:44;24.75;;;12.80;;
78875;SDS011;68253;52.506;5.486;2023-04-09T09:39:10;19.15;;;9.75;;
78875;SDS011;68253;52.506;5.486;2023-04-09T09:41:38;23.77;;;12.07;;
78875;SDS011;68253;52.506;5.486;2023-04-09T09:44:06;23.42;;;11.68;;
78875;SDS011;68253;52.506;5.486;2023-04-09T09:46:34;21.17;;;11.65;;
78875;SDS011;68253;52.506;5.486;2023-04-09T09:51:32;22.48;;;11.63;;
78875;SDS011;68253;52.506;5.486;2023-04-09T09:54:02;20.00;;;9.90;;
78875;SDS011;68253;52.506;5.486;2023-04-09T09:56:34;19.63;;;10.50;;
78875;SDS011;68253;52.506;5.486;2023-04-09T09:59:06;22.05;;;11.70;;
78875;SDS011;68253;52.506;5.486;2023-04-09T10:01:36;24.25;;;14.18;;
78875;SDS011;68253;52.506;5.486;2023-04-09T10:04:03;22.13;;;12.32;;
78875;SDS011;68253;52.506;5.486;2023-04-09T10:06:31;23.45;;;12.20;;
78875;SDS011;68253;52.506;5.486;2023-04-09T10:08:59;21.27;;;11.82;;
78875;SDS011;68253;52.506;5.486;2023-04-09T10:11:32;24.67;;;12.43;;
78875;SDS011;68253;52.506;5.486;2023-04-09T10:14:01;19.70;;;10.40;;
78875;SDS011;68253;52.506;5.486;2023-04-09T10:16:28;19.30;;;9.85;;
78875;SDS011;68253;52.506;5.486;2023-04-09T10:18:54;18.02;;;9.77;;
78875;SDS011;68253;52.506;5.486;2023-04-09T10:21:27;20.70;;;10.18;;
78875;SDS011;68253;52.506;5.486;2023-04-09T10:24:10;18.67;;;8.90;;
78875;SDS011;68253;52.506;5.486;2023-04-09T10:26:39;17.23;;;8.93;;
78875;SDS011;68253;52.506;5.486;2023-04-09T10:29:09;18.27;;;9.10;;
78875;SDS011;68253;52.506;5.486;2023-04-09T10:31:46;16.10;;;8.00;;
78875;SDS011;68253;52.506;5.486;2023-04-09T10:34:16;17.25;;;9.32;;
78875;SDS011;68253;52.506;5.486;2023-04-09T10:36:48;17.20;;;9.30;;
78875;SDS011;68253;52.506;5.486;2023-04-09T10:39:18;19.25;;;10.13;;
78875;SDS011;68253;52.506;5.486;2023-04-09T10:41:44;18.00;;;10.07;;
78875;SDS011;68253;52.506;5.486;2023-04-09T10:44:20;17.60;;;8.73;;
78875;SDS011;68253;52.506;5.486;2023-04-09T10:46:47;15.98;;;8.15;;
78875;SDS011;68253;52.506;5.486;2023-04-09T10:49:15;16.10;;;8.10;;
78875;SDS011;68253;52.506;5.486;2023-04-09T10:59:42;20.25;;;10.77;;
78875;SDS011;68253;52.506;5.486;2023-04-09T11:02:47;17.95;;;9.32;;
78875;SDS011;68253;52.506;5.486;2023-04-09T11:05:20;17.55;;;8.23;;
78875;SDS011;68253;52.506;5.486;2023-04-09T11:07:57;19.25;;;10.70;;
78875;SDS011;68253;52.506;5.486;2023-04-09T11:10:28;17.23;;;9.55;;
78875;SDS011;68253;52.506;5.486;2023-04-09T11:12:55;18.70;;;9.65;;
78875;SDS011;68253;52.506;5.486;2023-04-09T11:15:22;20.88;;;11.95;;
78875;SDS011;68253;52.506;5.486;2023-04-09T11:17:48;20.95;;;10.30;;
78875;SDS011;68253;52.506;5.486;2023-04-09T11:20:24;15.85;;;7.47;;
78875;SDS011;68253;52.506;5.486;2023-04-09T11:22:51;19.55;;;10.55;;
78875;SDS011;68253;52.506;5.486;2023-04-09T11:25:19;16.15;;;7.40;;
78875;SDS011;68253;52.506;5.486;2023-04-09T11:27:50;16.77;;;8.73;;
78875;SDS011;68253;52.506;5.486;2023-04-09T11:30:16;16.65;;;8.43;;
78875;SDS011;68253;52.506;5.486;2023-04-09T11:32:43;16.15;;;8.13;;
78875;SDS011;68253;52.506;5.486;2023-04-09T11:35:13;19.35;;;9.82;;
78875;SDS011;68253;52.506;5.486;2023-04-09T11:37:44;16.60;;;8.57;;
78875;SDS011;68253;52.506;5.486;2023-04-09T11:40:14;15.70;;;7.70;;
78875;SDS011;68253;52.506;5.486;2023-04-09T11:42:52;16.38;;;8.63;;
78875;SDS011;68253;52.506;5.486;2023-04-09T11:45:24;19.17;;;9.98;;
78875;SDS011;68253;52.506;5.486;2023-04-09T11:47:52;16.73;;;7.95;;
78875;SDS011;68253;52.506;5.486;2023-04-09T11:50:19;15.55;;;8.00;;
78875;SDS011;68253;52.506;5.486;2023-04-09T11:52:46;15.40;;;7.60;;
78875;SDS011;68253;52.506;5.486;2023-04-09T11:55:26;15.25;;;7.93;;
78875;SDS011;68253;52.506;5.486;2023-04-09T11:57:57;14.38;;;6.97;;
78875;SDS011;68253;52.506;5.486;2023-04-09T12:00:26;16.10;;;8.30;;
78875;SDS011;68253;52.506;5.486;2023-04-09T12:03:00;15.82;;;8.48;;
78875;SDS011;68253;52.506;5.486;2023-04-09T12:05:28;16.73;;;7.15;;
78875;SDS011;68253;52.506;5.486;2023-04-09T12:07:57;15.88;;;7.53;;
78875;SDS011;68253;52.506;5.486;2023-04-09T12:12:59;14.80;;;7.20;;
78875;SDS011;68253;52.506;5.486;2023-04-09T12:15:36;14.77;;;7.40;;
78875;SDS011;68253;52.506;5.486;2023-04-09T12:18:06;12.90;;;6.63;;
78875;SDS011;68253;52.506;5.486;2023-04-09T12:23:01;13.57;;;6.78;;
78875;SDS011;68253;52.506;5.486;2023-04-09T12:25:30;14.52;;;7.25;;
78875;SDS011;68253;52.506;5.486;2023-04-09T12:27:57;14.57;;;6.55;;
78875;SDS011;68253;52.506;5.486;2023-04-09T12:30:23;13.13;;;5.60;;
78875;SDS011;68253;52.506;5.486;2023-04-09T12:32:50;13.52;;;6.93;;
78875;SDS011;68253;52.506;5.486;2023-04-09T12:35:17;13.75;;;6.95;;
78875;SDS011;68253;52.506;5.486;2023-04-09T12:37:43;13.50;;;6.82;;
78875;SDS011;68253;52.506;5.486;2023-04-09T12:40:10;14.45;;;6.70;;
78875;SDS011;68253;52.506;5.486;2023-04-09T12:42:39;13.73;;;6.53;;
78875;SDS011;68253;52.506;5.486;2023-04-09T12:45:09;16.08;;;7.88;;
78875;SDS011;68253;52.506;5.486;2023-04-09T12:47:36;16.52;;;7.55;;
78875;SDS011;68253;52.506;5.486;2023-04-09T12:50:04;13.27;;;6.63;;
78875;SDS011;68253;52.506;5.486;2023-04-09T12:52:32;13.13;;;6.20;;
78875;SDS011;68253;52.506;5.486;2023-04-09T12:54:59;12.77;;;6.28;;
78875;SDS011;68253;52.506;5.486;2023-04-09T12:57:26;13.20;;;6.03;;
78875;SDS011;68253;52.506;5.486;2023-04-09T12:59:52;12.00;;;5.68;;
78875;SDS011;68253;52.506;5.486;2023-04-09T13:02:19;14.73;;;7.63;;
78875;SDS011;68253;52.506;5.486;2023-04-09T13:04:46;13.23;;;6.03;;
78875;SDS011;68253;52.506;5.486;2023-04-09T13:07:13;13.00;;;6.28;;
78875;SDS011;68253;52.506;5.486;2023-04-09T13:09:40;11.18;;;4.90;;
78875;SDS011;68253;52.506;5.486;2023-04-09T13:12:07;13.25;;;6.07;;
78875;SDS011;68253;52.506;5.486;2023-04-09T13:14:33;15.80;;;7.00;;
78875;SDS011;68253;52.506;5.486;2023-04-09T13:16:59;11.95;;;5.63;;
78875;SDS011;68253;52.506;5.486;2023-04-09T13:19:25;11.85;;;5.45;;
78875;SDS011;68253;52.506;5.486;2023-04-09T13:21:52;12.85;;;6.18;;
78875;SDS011;68253;52.506;5.486;2023-04-09T13:24:18;12.15;;;5.60;;
78875;SDS011;68253;52.506;5.486;2023-04-09T13:26:44;14.13;;;6.07;;
78875;SDS011;68253;52.506;5.486;2023-04-09T13:29:11;11.65;;;5.70;;
78875;SDS011;68253;52.506;5.486;2023-04-09T13:31:37;11.98;;;5.85;;
78875;SDS011;68253;52.506;5.486;2023-04-09T13:34:03;12.20;;;6.20;;
78875;SDS011;68253;52.506;5.486;2023-04-09T13:36:30;14.38;;;6.28;;
78875;SDS011;68253;52.506;5.486;2023-04-09T13:38:57;13.30;;;6.82;;
78875;SDS011;68253;52.506;5.486;2023-04-09T13:41:32;13.40;;;6.75;;
78875;SDS011;68253;52.506;5.486;2023-04-09T13:43:58;11.57;;;5.20;;
78875;SDS011;68253;52.506;5.486;2023-04-09T13:46:25;14.95;;;7.00;;
78875;SDS011;68253;52.506;5.486;2023-04-09T13:48:52;13.07;;;6.95;;
78875;SDS011;68253;52.506;5.486;2023-04-09T13:51:22;11.82;;;5.53;;
78875;SDS011;68253;52.506;5.486;2023-04-09T13:53:50;12.98;;;6.13;;
78875;SDS011;68253;52.506;5.486;2023-04-09T13:56:16;11.35;;;5.20;;
78875;SDS011;68253;52.506;5.486;2023-04-09T13:58:43;13.73;;;6.72;;
78875;SDS011;68253;52.506;5.486;2023-04-09T14:01:10;12.02;;;5.63;;
78875;SDS011;68253;52.506;5.486;2023-04-09T14:03:36;12.90;;;6.00;;
78875;SDS011;68253;52.506;5.486;2023-04-09T14:06:06;13.82;;;7.22;;
78875;SDS011;68253;52.506;5.486;2023-04-09T14:08:35;12.85;;;6.30;;
78875;SDS011;68253;52.506;5.486;2023-04-09T14:11:01;12.20;;;6.50;;
78875;SDS011;68253;52.506;5.486;2023-04-09T14:13:28;12.63;;;6.32;;
78875;SDS011;68253;52.506;5.486;2023-04-09T14:15:54;12.85;;;5.55;;
78875;SDS011;68253;52.506;5.486;2023-04-09T14:18:20;13.50;;;6.43;;
78875;SDS011;68253;52.506;5.486;2023-04-09T14:20:46;12.65;;;5.88;;
78875;SDS011;68253;52.506;5.486;2023-04-09T14:23:12;13.23;;;6.60;;
78875;SDS011;68253;52.506;5.486;2023-04-09T14:25:39;13.98;;;6.97;;
78875;SDS011;68253;52.506;5.486;2023-04-09T14:28:05;14.90;;;7.07;;
78875;SDS011;68253;52.506;5.486;2023-04-09T14:30:31;13.95;;;7.05;;
78875;SDS011;68253;52.506;5.486;2023-04-09T14:32:57;11.55;;;4.93;;
78875;SDS011;68253;52.506;5.486;2023-04-09T14:35:23;13.63;;;6.15;;
78875;SDS011;68253;52.506;5.486;2023-04-09T14:37:50;14.95;;;6.18;;
78875;SDS011;68253;52.506;5.486;2023-04-09T14:40:16;14.65;;;7.30;;
78875;SDS011;68253;52.506;5.486;2023-04-09T14:42:42;14.52;;;7.18;;
78875;SDS011;68253;52.506;5.486;2023-04-09T14:45:10;13.10;;;6.28;;
78875;SDS011;68253;52.506;5.486;2023-04-09T14:47:36;11.70;;;5.43;;
78875;SDS011;68253;52.506;5.486;2023-04-09T14:50:02;14.20;;;7.18;;
78875;SDS011;68253;52.506;5.486;2023-04-09T14:52:28;13.10;;;6.18;;
78875;SDS011;68253;52.506;5.486;2023-04-09T14:54:55;11.38;;;5.47;;
78875;SDS011;68253;52.506;5.486;2023-04-09T14:57:21;13.10;;;6.57;;
78875;SDS011;68253;52.506;5.486;2023-04-09T14:59:48;12.63;;;5.55;;
78875;SDS011;68253;52.506;5.486;2023-04-09T15:02:14;12.52;;;5.93;;